Time;durP1;ratioP1;P1;durP2;ratioP2;P2;SDS_P1;SDS_P2;PMS_P1;PMS_P2;Temp;Humidity;BMP_temperature;BMP_pressure;BME280_temperature;BME280_humidity;BME280_pressure;Samples;Min_cycle;Max_cycle;Signal;HPM_P1;HPM_P2
2022/09/14 00:01:28;;;;;;;;;13.25;13.00;;;;;23.78;66.21;100213.53;5018980;28;45643;-82
2022/09/14 00:03:59;;;;;;;;;13.00;13.00;;;;;23.82;65.62;100213.31;5009065;28;45298;-82
2022/09/14 00:06:25;;;;;;;;;14.00;14.00;;;;;23.80;65.79;100213.44;4999764;28;46747;-82
2022/09/14 00:08:53;;;;;;;;;8.67;8.67;;;;;23.78;65.85;100200.09;4999986;28;45259;-82
2022/09/14 00:11:20;;;;;;;;;11.00;9.00;;;;;23.77;65.06;100201.06;5001389;28;45290;-82
2022/09/14 00:13:46;;;;;;;;;7.67;7.67;;;;;23.76;65.26;100195.78;5013425;28;45443;-81
2022/09/14 00:16:21;;;;;;;;;10.00;10.00;;;;;23.78;65.45;100177.72;5008059;28;45512;-82
2022/09/14 00:18:52;;;;;;;;;14.33;13.67;;;;;23.80;66.08;100174.94;5006663;28;45527;-82
2022/09/14 00:21:17;;;;;;;;;13.33;13.00;;;;;23.76;65.93;100172.47;5000401;28;45267;-82
2022/09/14 00:23:42;;;;;;;;;11.00;9.00;;;;;23.75;66.30;100176.09;5006756;28;45167;-82
2022/09/14 00:26:11;;;;;;;;;11.67;10.00;;;;;23.72;66.35;100165.56;5013208;28;45405;-81
2022/09/14 00:28:44;;;;;;;;;14.33;12.00;;;;;23.71;66.42;100166.53;4999412;28;45411;-82
2022/09/14 00:31:10;;;;;;;;;10.00;10.00;;;;;23.69;67.06;100171.13;5000174;28;45272;-82
2022/09/14 00:33:37;;;;;;;;;11.00;10.33;;;;;23.68;66.80;100168.53;5001727;28;45468;-82
2022/09/14 00:36:14;;;;;;;;;14.75;11.75;;;;;23.65;66.69;100164.22;5001217;28;45434;-82
2022/09/14 00:38:40;;;;;;;;;15.50;13.25;;;;;23.65;66.73;100157.97;5000006;28;45329;-82
2022/09/14 00:41:20;;;;;;;;;13.67;12.33;;;;;23.59;66.82;100159.25;5002513;28;45250;-83
2022/09/14 00:44:05;;;;;;;;;14.50;11.50;;;;;23.54;67.50;100167.63;5006565;28;45443;-81
2022/09/14 00:46:53;;;;;;;;;11.33;11.33;;;;;23.47;67.79;100155.59;5019057;28;47625;-81
2022/09/14 00:49:24;;;;;;;;;13.00;11.33;;;;;23.45;67.16;100153.97;5030843;28;45312;-82
2022/09/14 00:52:07;;;;;;;;;11.00;10.33;;;;;23.39;67.06;100143.59;5030407;28;45163;-83
2022/09/14 00:54:38;;;;;;;;;12.67;10.67;;;;;23.35;67.47;100140.28;5036318;28;45716;-80
2022/09/14 00:57:04;;;;;;;;;8.00;8.00;;;;;23.27;67.26;100121.13;5036166;28;45852;-82
2022/09/14 00:59:35;;;;;;;;;9.33;8.00;;;;;23.25;67.86;100123.91;5038116;28;45367;-81
2022/09/14 01:02:00;;;;;;;;;10.50;10.50;;;;;23.21;68.21;100124.22;5023711;28;45378;-82
2022/09/14 01:04:26;;;;;;;;;10.25;9.25;;;;;23.15;67.83;100117.44;5020355;28;45398;-81
2022/09/14 01:07:28;;;;;;;;;9.67;8.33;;;;;23.15;68.12;100116.56;5020055;28;45384;-82
2022/09/14 01:10:03;;;;;;;;;9.67;9.67;;;;;23.12;68.11;100106.88;5019261;28;45337;-82
2022/09/14 01:12:37;;;;;;;;;10.33;10.33;;;;;23.13;68.79;100105.94;5020288;28;45305;-82
2022/09/14 01:15:12;;;;;;;;;10.00;9.67;;;;;23.12;68.15;100096.13;5020011;28;45295;-82
2022/09/14 01:17:44;;;;;;;;;10.33;10.00;;;;;23.08;68.57;100094.63;5001459;28;45437;-82
2022/09/14 01:20:24;;;;;;;;;9.00;9.00;;;;;23.06;68.69;100089.34;4999920;28;45426;-82
2022/09/14 01:23:05;;;;;;;;;10.33;9.00;;;;;23.07;68.67;100101.81;5006250;28;45333;-82
2022/09/14 01:25:50;;;;;;;;;7.67;7.67;;;;;23.14;68.43;100101.41;5018258;28;45467;-82
2022/09/14 01:28:29;;;;;;;;;6.00;6.00;;;;;23.17;67.97;100095.84;5019517;28;45449;-82
2022/09/14 01:31:00;;;;;;;;;6.67;6.67;;;;;23.17;68.09;100069.84;5019574;28;45445;-82
2022/09/14 01:33:34;;;;;;;;;6.00;5.00;;;;;23.22;67.39;100067.69;5019779;28;45323;-82
2022/09/14 01:36:03;;;;;;;;;7.00;5.00;;;;;23.23;67.08;100064.06;5018209;28;45406;-81
2022/09/14 01:38:42;;;;;;;;;9.00;5.33;;;;;23.26;67.37;100063.00;5017947;28;47995;-82
2022/09/14 01:41:12;;;;;;;;;7.00;5.00;;;;;23.27;67.31;100054.81;5018142;28;45379;-82
2022/09/14 01:43:41;;;;;;;;;5.67;5.67;;;;;23.30;67.20;100054.63;5019448;28;45153;-82
2022/09/14 01:46:16;;;;;;;;;8.67;8.67;;;;;23.36;66.82;100087.41;5017996;28;45418;-82
2022/09/14 01:48:48;;;;;;;;;5.00;5.00;;;;;23.32;66.68;100100.19;5007973;28;46314;-81
2022/09/14 01:51:21;;;;;;;;;4.00;4.00;;;;;23.34;66.58;100101.81;5021597;28;45672;-82
2022/09/14 01:53:54;;;;;;;;;5.00;4.00;;;;;23.33;66.30;100094.72;5022809;28;45231;-82
2022/09/14 01:56:31;;;;;;;;;4.33;3.33;;;;;23.32;66.14;100092.97;5021248;28;46522;-82
2022/09/14 01:59:06;;;;;;;;;5.00;3.67;;;;;23.30;65.83;100084.16;5022520;28;45690;-82
2022/09/14 02:01:40;;;;;;;;;3.00;3.00;;;;;23.27;65.69;100072.78;5022663;28;45216;-82
2022/09/14 02:04:10;;;;;;;;;2.00;2.00;;;;;23.27;65.85;100057.50;5021403;28;45359;-82
2022/09/14 02:06:55;;;;;;;;;5.33;5.33;;;;;23.31;65.12;100064.41;5021333;28;45472;-81
2022/09/14 02:09:25;;;;;;;;;1.67;1.67;;;;;23.31;65.43;100082.38;5038047;28;47077;-81
2022/09/14 02:11:51;;;;;;;;;3.67;3.67;;;;;23.29;65.64;100095.88;5022318;28;45263;-82
2022/09/14 02:14:17;;;;;;;;;3.33;2.67;;;;;23.28;65.64;100090.59;5021337;28;45268;-82
2022/09/14 02:16:44;;;;;;;;;4.33;2.33;;;;;23.27;65.17;100097.81;5021040;28;45564;-81
2022/09/14 02:19:11;;;;;;;;;3.00;3.00;;;;;23.23;65.39;100093.63;5020998;28;47977;-82
2022/09/14 02:21:37;;;;;;;;;2.33;2.33;;;;;23.20;65.71;100080.41;5022554;28;45347;-82
2022/09/14 02:24:03;;;;;;;;;3.67;3.00;;;;;23.19;65.31;100072.44;5021173;28;45323;-81
2022/09/14 02:26:29;;;;;;;;;4.33;3.33;;;;;23.21;65.48;100076.72;5021038;28;45548;-82
2022/09/14 02:28:56;;;;;;;;;3.67;3.67;;;;;23.20;65.66;100083.09;5020900;28;46125;-82
2022/09/14 02:31:43;;;;;;;;;3.00;2.00;;;;;23.23;65.79;100100.78;5022383;28;45198;-81
2022/09/14 02:34:32;;;;;;;;;4.67;4.67;;;;;23.26;65.80;100116.72;5022608;28;45252;-82
2022/09/14 02:37:09;;;;;;;;;4.00;3.33;;;;;23.23;65.46;100098.09;5020837;28;45633;-82
2022/09/14 02:39:59;;;;;;;;;6.00;3.33;;;;;23.27;65.31;100105.00;5022127;28;45513;-82
2022/09/14 02:42:30;;;;;;;;;2.00;2.00;;;;;23.24;64.75;100100.69;5020713;28;45905;-81
2022/09/14 02:45:09;;;;;;;;;4.00;3.00;;;;;23.29;65.30;100111.16;5022053;28;45287;-82
2022/09/14 02:47:59;;;;;;;;;4.67;4.33;;;;;23.32;65.12;100116.31;5021922;28;45392;-82
2022/09/14 02:50:30;;;;;;;;;6.67;5.33;;;;;23.30;65.50;100104.78;5021950;28;46118;-82
2022/09/14 02:53:07;;;;;;;;;2.33;2.33;;;;;23.32;65.49;100100.19;5020581;28;45698;-82
2022/09/14 02:55:41;;;;;;;;;3.00;3.00;;;;;23.37;65.75;100100.75;5020282;28;45437;-81
2022/09/14 02:58:11;;;;;;;;;3.00;3.00;;;;;23.37;65.60;100102.56;5020214;28;45426;-81
2022/09/14 03:00:45;;;;;;;;;3.67;2.33;;;;;23.37;66.14;100103.44;5020814;28;46187;-82
2022/09/14 03:03:13;;;;;;;;;5.00;4.00;;;;;23.35;65.75;100099.97;5020462;28;45241;-82
2022/09/14 03:05:40;;;;;;;;;3.00;3.00;;;;;23.37;66.20;100102.56;5020582;28;45455;-82
2022/09/14 03:08:06;;;;;;;;;3.33;3.33;;;;;23.35;65.93;100089.22;5021869;28;45576;-81
2022/09/14 03:10:32;;;;;;;;;5.33;4.33;;;;;23.34;65.70;100090.22;5021293;28;45377;-82
2022/09/14 03:12:58;;;;;;;;;3.00;3.00;;;;;23.30;65.83;100097.59;5021715;28;45409;-82
2022/09/14 03:15:24;;;;;;;;;7.00;5.00;;;;;23.26;65.98;100093.41;5020393;28;45418;-82
2022/09/14 03:17:50;;;;;;;;;3.67;3.67;;;;;23.26;66.12;100096.09;5020136;28;45859;-82
2022/09/14 03:20:22;;;;;;;;;7.00;5.67;;;;;23.27;66.19;100105.00;5021463;28;45274;-82
2022/09/14 03:22:47;;;;;;;;;3.67;3.67;;;;;23.24;66.45;100108.75;5021670;28;45456;-82
2022/09/14 03:25:14;;;;;;;;;7.00;6.33;;;;;23.26;66.52;100095.25;5009846;28;45355;-82
2022/09/14 03:27:40;;;;;;;;;6.00;5.33;;;;;23.24;66.35;100098.00;5001893;28;45498;-82
2022/09/14 03:30:07;;;;;;;;;7.67;5.33;;;;;23.23;66.24;100084.66;5001440;28;45254;-81
2022/09/14 03:32:33;;;;;;;;;5.00;5.00;;;;;23.24;66.43;100099.84;5000035;28;45260;-82
2022/09/14 03:34:59;;;;;;;;;6.00;6.00;;;;;23.23;66.48;100096.31;5001720;28;45214;-81
2022/09/14 03:37:25;;;;;;;;;6.00;6.00;;;;;23.21;67.13;100086.63;5001662;28;45162;-82
2022/09/14 03:39:51;;;;;;;;;5.00;5.00;;;;;23.17;66.71;100077.88;5001128;28;45413;-82
2022/09/14 03:42:16;;;;;;;;;5.33;5.33;;;;;23.14;67.46;100069.19;4999872;28;45425;-81
2022/09/14 03:44:42;;;;;;;;;6.33;6.33;;;;;23.16;67.09;100076.19;5001442;28;45369;-82
2022/09/14 03:47:07;;;;;;;;;4.00;4.00;;;;;23.15;67.36;100079.84;5021227;28;45549;-82
2022/09/14 03:49:33;;;;;;;;;5.00;5.00;;;;;23.12;67.13;100077.34;5019579;28;46657;-82
2022/09/14 03:51:59;;;;;;;;;6.00;6.00;;;;;23.09;67.53;100073.06;5021171;28;45438;-82
2022/09/14 03:54:25;;;;;;;;;6.00;6.00;;;;;23.04;67.56;100083.25;5020912;28;45418;-82
2022/09/14 03:56:52;;;;;;;;;6.00;6.00;;;;;23.05;67.38;100095.69;5020882;28;45422;-82
2022/09/14 03:59:17;;;;;;;;;10.00;7.00;;;;;23.05;67.50;100089.47;5005781;28;46347;-82
2022/09/14 04:01:43;;;;;;;;;7.00;4.67;;;;;23.02;67.40;100095.91;4999732;28;45329;-81
2022/09/14 04:04:08;;;;;;;;;8.00;6.00;;;;;23.04;67.39;100098.47;4999866;28;45411;-82
2022/09/14 04:06:34;;;;;;;;;7.00;5.00;;;;;23.02;67.48;100105.78;5001169;28;45277;-82
2022/09/14 04:08:59;;;;;;;;;6.00;5.33;;;;;22.99;67.39;100095.22;5001154;28;45275;-81
2022/09/14 04:11:25;;;;;;;;;4.00;4.00;;;;;22.99;67.32;100084.47;4998836;28;45820;-82
2022/09/14 04:13:51;;;;;;;;;7.00;7.00;;;;;23.02;67.00;100105.78;4999232;28;45448;-82
2022/09/14 04:16:21;;;;;;;;;7.33;5.33;;;;;23.01;67.52;100104.03;5000741;28;45480;-81
2022/09/14 04:18:47;;;;;;;;;7.00;6.33;;;;;23.00;67.39;100092.44;4999181;28;48228;-82
2022/09/14 04:21:14;;;;;;;;;6.00;4.67;;;;;22.97;67.21;100078.38;4999122;28;45796;-81
2022/09/14 04:23:40;;;;;;;;;7.33;6.00;;;;;22.98;67.35;100059.47;5000992;28;45217;-82
2022/09/14 04:26:11;;;;;;;;;4.33;4.33;;;;;23.00;67.37;100059.38;5000599;28;45335;-81
2022/09/14 04:28:36;;;;;;;;;7.00;7.00;;;;;23.00;67.31;100070.97;4999085;28;47109;-82
2022/09/14 04:31:02;;;;;;;;;6.67;5.00;;;;;22.98;67.06;100058.59;5000584;28;45312;-82
2022/09/14 04:33:33;;;;;;;;;4.67;3.33;;;;;22.91;66.70;100052.75;5001589;28;45190;-81
2022/09/14 04:36:07;;;;;;;;;5.00;5.00;;;;;22.84;66.98;100054.97;5000192;28;45509;-81
2022/09/14 04:38:34;;;;;;;;;6.67;4.00;;;;;22.84;66.60;100051.44;5001393;28;45404;-82
2022/09/14 04:41:02;;;;;;;;;4.33;4.33;;;;;22.76;66.95;100054.63;5000681;28;45415;-81
2022/09/14 04:43:28;;;;;;;;;6.00;4.00;;;;;22.70;66.97;100049.66;5000522;28;45290;-81
2022/09/14 04:46:04;;;;;;;;;5.33;5.00;;;;;22.68;67.36;100057.81;5000399;28;46031;-82
2022/09/14 04:48:34;;;;;;;;;4.67;4.67;;;;;22.61;66.91;100055.59;5018925;28;45278;-83
2022/09/14 04:51:06;;;;;;;;;4.00;4.00;;;;;22.60;67.27;100072.69;5020260;28;45371;-82
2022/09/14 04:53:36;;;;;;;;;6.00;4.00;;;;;22.54;67.48;100055.16;5020136;28;45370;-82
2022/09/14 04:56:05;;;;;;;;;5.00;4.00;;;;;22.53;67.65;100060.63;5019301;28;45242;-81
2022/09/14 04:58:31;;;;;;;;;5.67;5.00;;;;;22.55;67.63;100062.25;5019761;28;45450;-81
2022/09/14 05:01:08;;;;;;;;;5.00;3.33;;;;;22.52;67.82;100056.22;5019575;28;45446;-82
2022/09/14 05:03:42;;;;;;;;;5.00;5.00;;;;;22.48;67.80;100052.88;5020084;28;45372;-81
2022/09/14 05:06:11;;;;;;;;;6.67;6.67;;;;;22.44;67.68;100049.53;5019999;28;45375;-82
2022/09/14 05:08:37;;;;;;;;;6.00;6.00;;;;;22.42;67.87;100040.69;5020071;28;45343;-81
2022/09/14 05:11:05;;;;;;;;;3.00;3.00;;;;;22.43;68.05;100033.53;5019651;28;45294;-81
2022/09/14 05:13:31;;;;;;;;;7.00;6.67;;;;;22.43;67.98;100037.06;5020219;28;45434;-82
2022/09/14 05:16:27;;;;;;;;;4.00;4.00;;;;;22.44;68.08;100028.06;5019544;28;45540;-82
2022/09/14 05:19:00;;;;;;;;;5.33;4.67;;;;;22.46;67.86;100028.81;5009927;28;48093;-81
2022/09/14 05:21:27;;;;;;;;;3.00;3.00;;;;;22.46;68.03;100019.94;5018463;28;46086;-81
2022/09/14 05:24:03;;;;;;;;;5.00;4.00;;;;;22.48;68.10;100017.13;5019974;28;45438;-82
2022/09/14 05:26:30;;;;;;;;;6.67;6.67;;;;;22.46;67.87;100011.88;5021737;28;45388;-81
2022/09/14 05:28:57;;;;;;;;;4.00;4.00;;;;;22.51;67.98;100017.81;5021883;28;46189;-81
2022/09/14 05:31:24;;;;;;;;;5.00;5.00;;;;;22.52;68.19;100021.34;5022308;28;45912;-82
2022/09/14 05:33:50;;;;;;;;;9.00;7.00;;;;;22.53;68.47;100017.69;5004117;28;45265;-82
2022/09/14 05:36:16;;;;;;;;;4.00;4.00;;;;;22.53;68.42;100010.50;5002425;28;45483;-81
2022/09/14 05:38:42;;;;;;;;;3.67;3.67;;;;;22.54;68.17;100003.34;5002544;28;48297;-82
2022/09/14 05:41:10;;;;;;;;;5.00;5.00;;;;;22.53;68.33;100004.28;5003054;28;45423;-82
2022/09/14 05:43:35;;;;;;;;;6.00;6.00;;;;;22.55;68.51;100002.38;5003201;28;46270;-82
2022/09/14 05:46:07;;;;;;;;;7.00;7.00;;;;;22.55;68.48;100007.72;5003044;28;45222;-82
2022/09/14 05:48:34;;;;;;;;;6.33;6.33;;;;;22.56;68.16;100022.84;5003764;28;48109;-82
2022/09/14 05:51:03;;;;;;;;;6.00;5.00;;;;;22.57;67.85;100028.13;5021486;28;45420;-82
2022/09/14 05:53:28;;;;;;;;;5.00;5.00;;;;;22.61;68.35;100034.16;5021114;28;45272;-82
2022/09/14 05:56:02;;;;;;;;;7.33;6.33;;;;;22.59;68.74;100025.38;5020894;28;45280;-82
2022/09/14 05:58:27;;;;;;;;;9.00;6.67;;;;;22.57;68.47;100036.19;5020875;28;48235;-83
2022/09/14 06:00:53;;;;;;;;;8.67;6.33;;;;;22.60;68.42;100040.50;5021039;28;45333;-82
2022/09/14 06:03:18;;;;;;;;;7.67;6.00;;;;;22.61;68.30;100042.19;5023097;28;45242;-82
2022/09/14 06:05:44;;;;;;;;;7.67;7.33;;;;;22.60;68.53;100057.44;5021336;28;45443;-82
2022/09/14 06:08:09;;;;;;;;;8.00;6.00;;;;;22.64;68.57;100058.09;5022733;28;45300;-82
2022/09/14 06:10:34;;;;;;;;;6.00;6.00;;;;;22.69;68.13;100064.03;5022304;28;45244;-82
2022/09/14 06:13:00;;;;;;;;;5.00;5.00;;;;;22.67;67.81;100057.91;5022961;28;45264;-82
2022/09/14 06:15:25;;;;;;;;;6.00;6.00;;;;;22.70;67.65;100051.50;5022484;28;45453;-82
2022/09/14 06:17:51;;;;;;;;;5.00;5.00;;;;;22.70;68.26;100055.03;5022326;28;45353;-82
2022/09/14 06:20:17;;;;;;;;;5.00;5.00;;;;;22.74;67.82;100061.91;5020954;28;45766;-82
2022/09/14 06:22:43;;;;;;;;;4.67;4.67;;;;;22.74;67.85;100069.94;5022545;28;45448;-82
2022/09/14 06:25:10;;;;;;;;;5.00;4.33;;;;;22.71;67.87;100066.63;5021918;28;45427;-82
2022/09/14 06:27:36;;;;;;;;;7.00;7.00;;;;;22.67;67.79;100074.88;5021052;28;48121;-82
2022/09/14 06:30:03;;;;;;;;;5.67;5.67;;;;;22.65;67.79;100068.75;5020927;28;45337;-82
2022/09/14 06:32:31;;;;;;;;;6.33;6.33;;;;;22.58;67.74;100059.34;5021011;28;45276;-82
2022/09/14 06:34:59;;;;;;;;;9.00;7.00;;;;;22.61;67.65;100061.88;5020964;28;45548;-82
2022/09/14 06:37:25;;;;;;;;;6.33;6.00;;;;;22.61;68.19;100047.56;5020544;28;46015;-82
2022/09/14 06:39:50;;;;;;;;;5.33;4.33;;;;;22.66;68.07;100054.34;5020531;28;45306;-82
2022/09/14 06:42:15;;;;;;;;;6.00;5.33;;;;;22.71;67.96;100043.31;5020947;28;45409;-82
2022/09/14 06:44:41;;;;;;;;;5.00;4.67;;;;;22.76;67.91;100043.88;5021990;28;45462;-82
2022/09/14 06:47:06;;;;;;;;;6.00;6.00;;;;;22.81;67.55;100043.59;5020616;28;47182;-82
2022/09/14 06:49:32;;;;;;;;;8.00;6.00;;;;;22.85;67.81;100045.97;5023351;28;45452;-82
2022/09/14 06:51:59;;;;;;;;;7.00;7.00;;;;;22.88;68.05;100056.50;5002394;28;45369;-82
2022/09/14 06:54:25;;;;;;;;;5.00;5.00;;;;;22.96;68.21;100050.66;5008173;28;45467;-82
2022/09/14 06:56:51;;;;;;;;;5.67;4.67;;;;;23.05;67.46;100063.47;5021738;28;45520;-82
2022/09/14 06:59:17;;;;;;;;;5.00;4.00;;;;;23.11;67.75;100063.06;5019923;28;45417;-82
2022/09/14 07:01:44;;;;;;;;;4.00;4.00;;;;;23.16;67.11;100075.31;5020559;28;45442;-82
2022/09/14 07:04:10;;;;;;;;;4.00;4.00;;;;;23.19;67.50;100065.22;5021495;28;45395;-82
2022/09/14 07:06:44;;;;;;;;;5.33;4.00;;;;;23.21;67.10;100059.75;5021782;28;45403;-82
2022/09/14 07:09:11;;;;;;;;;5.33;5.33;;;;;23.23;66.90;100066.75;5021427;28;45446;-82
2022/09/14 07:11:37;;;;;;;;;5.00;5.00;;;;;23.27;67.27;100053.97;5020032;28;45305;-82
2022/09/14 07:14:03;;;;;;;;;7.00;5.00;;;;;23.30;67.17;100061.81;5021556;28;45462;-82
2022/09/14 07:16:30;;;;;;;;;8.00;8.00;;;;;23.30;67.35;100065.34;5021289;28;46252;-82
2022/09/14 07:19:00;;;;;;;;;6.33;6.33;;;;;23.31;66.90;100069.78;5021403;28;45237;-82
2022/09/14 07:21:30;;;;;;;;;6.67;6.00;;;;;23.31;67.31;100067.09;5020169;28;45258;-83
2022/09/14 07:23:55;;;;;;;;;5.33;5.33;;;;;23.30;66.78;100068.03;5021052;28;45490;-82
2022/09/14 07:26:23;;;;;;;;;3.67;3.67;;;;;23.29;66.72;100063.66;5019629;28;47870;-82
2022/09/14 07:28:52;;;;;;;;;9.00;5.33;;;;;23.26;66.79;100068.38;5021350;28;45484;-82
2022/09/14 07:31:33;;;;;;;;;8.00;8.00;;;;;23.22;67.29;100073.06;5010074;28;45324;-83
2022/09/14 07:34:03;;;;;;;;;8.67;7.00;;;;;23.20;67.22;100084.88;5007696;28;45548;-82
2022/09/14 07:36:30;;;;;;;;;6.00;6.00;;;;;23.13;67.22;100080.91;5020946;28;45298;-83
2022/09/14 07:38:56;;;;;;;;;7.33;5.00;;;;;23.06;67.84;100069.69;5019677;28;45636;-82
2022/09/14 07:41:24;;;;;;;;;4.67;4.67;;;;;23.06;67.19;100064.31;5020524;28;45402;-82
2022/09/14 07:43:51;;;;;;;;;5.00;5.00;;;;;23.06;67.44;100073.25;5001353;28;45356;-82
2022/09/14 07:46:18;;;;;;;;;5.00;5.00;;;;;23.10;67.59;100074.78;5001051;28;45591;-81
2022/09/14 07:48:43;;;;;;;;;5.67;5.00;;;;;23.17;67.55;100085.09;5020838;28;45413;-81
2022/09/14 07:51:10;;;;;;;;;5.00;5.00;;;;;23.18;67.48;100089.53;5019312;28;45826;-82
2022/09/14 07:53:38;;;;;;;;;5.00;5.00;;;;;23.21;67.60;100086.63;5019268;28;45582;-82
2022/09/14 07:56:05;;;;;;;;;7.00;6.00;;;;;23.24;67.28;100097.16;5020091;28;46128;-82
2022/09/14 07:58:30;;;;;;;;;7.00;6.33;;;;;23.26;67.37;100089.88;5020489;28;45343;-82
2022/09/14 08:01:01;;;;;;;;;8.00;5.67;;;;;23.33;67.24;100102.78;5019107;28;45514;-82
2022/09/14 08:03:28;;;;;;;;;3.67;3.67;;;;;23.36;67.11;100093.63;5019497;28;45514;-82
2022/09/14 08:06:14;;;;;;;;;4.67;4.00;;;;;23.44;66.97;100091.31;5018671;28;48022;-82
2022/09/14 08:08:43;;;;;;;;;6.33;4.67;;;;;23.56;66.99;100097.66;5019264;28;46100;-82
2022/09/14 08:11:11;;;;;;;;;4.00;4.00;;;;;23.64;66.53;100097.16;5019097;28;45205;-82
2022/09/14 08:13:43;;;;;;;;;8.00;6.33;;;;;23.71;66.92;100109.19;5020518;28;45470;-82
2022/09/14 08:16:09;;;;;;;;;4.00;3.00;;;;;23.79;66.38;100117.63;5020513;28;45474;-81
2022/09/14 08:18:36;;;;;;;;;6.00;4.33;;;;;23.81;66.25;100118.38;5019373;28;45361;-81
2022/09/14 08:21:07;;;;;;;;;4.67;4.67;;;;;23.84;65.78;100117.28;5012999;28;45490;-82
2022/09/14 08:23:33;;;;;;;;;6.00;5.33;;;;;23.93;66.04;100130.13;4999504;28;45264;-81
2022/09/14 08:26:14;;;;;;;;;4.67;3.67;;;;;24.02;65.42;100124.09;5001130;28;45222;-82
2022/09/14 08:28:40;;;;;;;;;8.00;5.00;;;;;24.15;65.69;100135.72;4999359;28;45406;-82
2022/09/14 08:31:16;;;;;;;;;8.00;6.33;;;;;24.29;65.22;100136.56;5000973;28;45513;-81
2022/09/14 08:33:44;;;;;;;;;6.00;5.67;;;;;24.44;65.13;100140.91;4999082;28;46108;-82
2022/09/14 08:36:13;;;;;;;;;7.00;4.33;;;;;24.59;65.11;100141.63;5000250;28;45310;-81
2022/09/14 08:38:39;;;;;;;;;9.00;6.67;;;;;24.71;64.95;100139.91;4998670;28;45543;-82
2022/09/14 08:41:26;;;;;;;;;5.50;5.50;;;;;24.78;64.33;100143.84;5000088;28;45324;-82
2022/09/14 08:43:52;;;;;;;;;5.33;5.33;;;;;24.86;64.05;100141.47;5006299;28;45479;-82
2022/09/14 08:46:53;;;;;;;;;5.67;5.67;;;;;24.94;63.45;100143.59;5019558;28;46060;-82
2022/09/14 08:49:32;;;;;;;;;7.00;7.00;;;;;24.93;63.79;100144.56;5003973;28;45451;-83
2022/09/14 08:51:58;;;;;;;;;6.00;6.00;;;;;24.95;63.63;100139.94;5005971;28;45245;-82
2022/09/14 08:54:24;;;;;;;;;8.33;5.33;;;;;24.95;63.23;100146.19;5018298;28;45382;-82
2022/09/14 08:57:02;;;;;;;;;7.00;6.00;;;;;24.99;63.15;100145.00;5019722;28;45282;-82
2022/09/14 08:59:51;;;;;;;;;6.00;4.67;;;;;25.02;63.43;100146.56;5019081;28;45349;-83
2022/09/14 09:02:20;;;;;;;;;5.67;5.67;;;;;25.08;63.33;100154.22;5018705;28;45312;-83
2022/09/14 09:05:18;;;;;;;;;5.33;5.00;;;;;25.11;62.91;100151.31;5020280;28;45356;-82
2022/09/14 09:08:23;;;;;;;;;7.33;5.00;;;;;25.19;62.08;100142.69;5018437;28;47471;-82
2022/09/14 09:10:52;;;;;;;;;5.67;5.67;;;;;25.23;61.51;100142.34;5016112;28;45449;-82
2022/09/14 09:13:21;;;;;;;;;4.67;4.33;;;;;25.28;61.59;100145.53;5000212;28;45240;-82
2022/09/14 09:15:50;;;;;;;;;7.00;5.00;;;;;25.38;61.74;100151.09;5001314;28;45344;-82
2022/09/14 09:18:35;;;;;;;;;7.67;5.00;;;;;25.44;60.80;100153.31;5018388;28;46026;-83
2022/09/14 09:21:16;;;;;;;;;3.33;2.00;;;;;25.58;59.69;100148.72;4998821;28;45317;-83
2022/09/14 09:23:42;;;;;;;;;6.00;6.00;;;;;25.67;59.24;100148.91;4998937;28;45539;-83
2022/09/14 09:26:29;;;;;;;;;4.67;4.67;;;;;25.77;59.45;100150.88;4999266;28;45670;-82
2022/09/14 09:29:00;;;;;;;;;3.33;3.00;;;;;25.77;58.89;100145.47;5000479;28;46221;-82
2022/09/14 09:31:34;;;;;;;;;4.00;4.00;;;;;25.78;58.64;100141.84;5000436;28;45295;-83
2022/09/14 09:34:01;;;;;;;;;5.00;4.00;;;;;25.84;58.38;100152.16;4998089;28;45215;-82
2022/09/14 09:36:35;;;;;;;;;3.00;3.00;;;;;25.83;58.06;100145.03;4997995;28;45455;-83
2022/09/14 09:39:02;;;;;;;;;5.00;4.00;;;;;25.85;57.40;100138.56;4999230;28;47191;-82
2022/09/14 09:41:33;;;;;;;;;4.33;3.00;;;;;25.89;57.65;100141.88;4998672;28;45467;-82
2022/09/14 09:43:59;;;;;;;;;3.00;3.00;;;;;26.01;56.96;100145.47;5000331;28;45301;-82
2022/09/14 09:46:33;;;;;;;;;4.33;4.33;;;;;26.13;56.74;100136.41;5001164;28;45205;-82
2022/09/14 09:49:02;;;;;;;;;3.00;3.00;;;;;26.27;56.01;100144.28;5026376;28;46988;-82
2022/09/14 09:51:32;;;;;;;;;6.00;5.00;;;;;26.43;55.38;100140.38;5000454;28;46008;-82
2022/09/14 09:54:17;;;;;;;;;3.67;3.00;;;;;26.57;54.98;100140.13;5010752;28;45203;-82
2022/09/14 09:57:03;;;;;;;;;3.00;3.00;;;;;26.74;54.60;100144.19;5028495;28;45269;-81
2022/09/14 09:59:38;;;;;;;;;4.00;4.00;;;;;26.80;54.11;100147.25;5022275;28;46582;-80
2022/09/14 10:02:33;;;;;;;;;6.00;6.00;;;;;26.84;53.57;100150.59;5024315;28;44949;-82
2022/09/14 10:05:06;;;;;;;;;3.33;3.33;;;;;26.92;53.95;100152.63;5019457;28;45232;-81
2022/09/14 10:07:38;;;;;;;;;2.33;2.33;;;;;26.98;53.69;100144.91;5028690;28;45663;-82
2022/09/14 10:10:10;;;;;;;;;3.67;3.67;;;;;27.03;53.32;100145.38;5028390;28;46290;-82
2022/09/14 10:12:38;;;;;;;;;4.33;3.33;;;;;27.04;52.96;100147.09;5025429;28;45189;-82
2022/09/14 10:15:06;;;;;;;;;4.00;3.33;;;;;27.03;52.25;100148.09;5023518;28;45469;-82
2022/09/14 10:17:32;;;;;;;;;3.00;3.00;;;;;26.99;53.10;100138.50;5024612;28;45230;-82
2022/09/14 10:19:58;;;;;;;;;4.33;4.33;;;;;26.99;52.80;100134.94;5021887;28;46744;-82
2022/09/14 10:22:26;;;;;;;;;4.67;2.67;;;;;26.96;52.32;100124.41;5022346;28;45229;-82
2022/09/14 10:24:58;;;;;;;;;3.00;2.00;;;;;26.91;52.06;100130.16;5022292;28;45398;-81
2022/09/14 10:27:38;;;;;;;;;2.00;2.00;;;;;26.90;51.63;100120.34;5022529;28;45167;-81
2022/09/14 10:30:06;;;;;;;;;5.00;4.00;;;;;26.93;52.20;100121.94;5023083;28;45311;-83
2022/09/14 10:32:33;;;;;;;;;4.00;3.00;;;;;26.98;52.43;100119.72;5022303;28;45506;-81
2022/09/14 10:34:58;;;;;;;;;4.67;3.67;;;;;27.02;52.50;100127.47;5020993;28;45346;-82
2022/09/14 10:37:28;;;;;;;;;4.67;4.67;;;;;27.04;52.06;100119.22;5020474;28;45309;-82
2022/09/14 10:40:31;;;;;;;;;1.33;1.33;;;;;27.08;52.00;100111.69;5021967;28;46501;-83
2022/09/14 10:43:22;;;;;;;;;3.00;3.00;;;;;27.12;51.35;100114.03;4999937;28;45438;-82
2022/09/14 10:45:57;;;;;;;;;2.00;2.00;;;;;27.25;51.41;100108.50;5021226;28;45245;-82
2022/09/14 10:48:39;;;;;;;;;5.00;4.00;;;;;27.44;51.19;100113.22;5020528;28;45293;-82
2022/09/14 10:51:26;;;;;;;;;4.00;3.33;;;;;27.64;50.61;100103.38;5022207;28;45352;-82
2022/09/14 10:54:16;;;;;;;;;1.33;1.33;;;;;27.74;49.65;100095.34;5021565;28;45252;-82
2022/09/14 10:57:13;;;;;;;;;4.33;3.33;;;;;27.82;49.98;100096.44;5022783;28;45375;-82
2022/09/14 10:59:54;;;;;;;;;3.33;3.33;;;;;27.95;49.30;100087.25;5020483;28;45427;-82
2022/09/14 11:02:34;;;;;;;;;2.00;2.00;;;;;28.07;49.13;100092.47;5021563;28;46347;-83
2022/09/14 11:05:06;;;;;;;;;2.00;2.00;;;;;28.24;48.90;100082.84;5022013;28;45414;-83
2022/09/14 11:07:54;;;;;;;;;4.00;2.67;;;;;28.42;48.66;100079.53;5020347;28;45372;-83
2022/09/14 11:10:29;;;;;;;;;5.67;4.00;;;;;28.47;48.64;100096.22;5021397;28;45490;-83
2022/09/14 11:13:22;;;;;;;;;3.33;3.33;;;;;28.50;48.29;100083.28;5021353;28;45464;-83
2022/09/14 11:16:06;;;;;;;;;3.00;3.00;;;;;28.52;47.64;100080.41;5020135;28;45486;-84
2022/09/14 11:18:44;;;;;;;;;2.00;2.00;;;;;28.57;47.95;100084.44;5021765;28;45463;-83
2022/09/14 11:21:32;;;;;;;;;2.00;2.00;;;;;28.61;47.38;100084.16;5019593;28;45585;-83
2022/09/14 11:24:13;;;;;;;;;1.67;1.67;;;;;28.67;47.21;100073.63;5021966;28;46198;-83
2022/09/14 11:26:43;;;;;;;;;2.00;2.00;;;;;28.75;47.14;100081.91;5021029;28;45497;-82
2022/09/14 11:29:23;;;;;;;;;2.00;2.00;;;;;28.87;47.05;100088.09;5021196;28;45176;-83
2022/09/14 11:32:03;;;;;;;;;3.33;3.00;;;;;28.96;46.97;100087.22;5021493;28;45513;-83
2022/09/14 11:34:40;;;;;;;;;3.00;3.00;;;;;29.20;46.68;100088.72;5019931;28;48041;-83
2022/09/14 11:37:11;;;;;;;;;4.00;4.00;;;;;29.40;46.29;100081.44;5016808;28;45224;-83
2022/09/14 11:39:43;;;;;;;;;3.33;1.67;;;;;29.49;45.69;100085.16;5013145;28;45149;-84
2022/09/14 11:42:17;;;;;;;;;2.33;2.33;;;;;29.53;45.56;100095.56;5019688;28;45432;-84
2022/09/14 11:44:45;;;;;;;;;1.67;1.67;;;;;29.52;45.59;100090.28;5007155;28;46097;-82